Time;durP1;ratioP1;P1;durP2;ratioP2;P2;SDS_P1;SDS_P2;PMS_P1;PMS_P2;Temp;Humidity;BMP_temperature;BMP_pressure;BME280_temperature;BME280_humidity;BME280_pressure;Samples;Min_cycle;Max_cycle;Signal;HPM_P1;HPM_P2
2021/06/06 00:01:27;;;;;;;38.72;26.63;;;16.60;90.80;;;;;;5157362;27;20111;-90
2021/06/06 00:03:56;;;;;;;44.65;28.42;;;16.60;90.70;;;;;;5156886;27;20095;-90
2021/06/06 00:06:32;;;;;;;56.70;33.58;;;16.60;90.60;;;;;;5156491;27;20054;-91
2021/06/06 00:09:00;;;;;;;50.30;31.48;;;16.60;90.60;;;;;;5157165;27;20069;-91
2021/06/06 00:11:32;;;;;;;43.72;28.95;;;16.60;90.70;;;;;;5157093;27;20099;-90
2021/06/06 00:14:00;;;;;;;55.13;33.00;;;16.50;90.70;;;;;;5176028;27;20126;-91
2021/06/06 00:16:30;;;;;;;52.97;33.03;;;16.50;90.60;;;;;;5177893;27;20129;-90
2021/06/06 00:18:56;;;;;;;46.50;29.73;;;16.50;90.50;;;;;;5177151;27;20046;-90
2021/06/06 00:21:24;;;;;;;43.72;29.15;;;16.50;90.60;;;;;;5177637;27;20172;-90
2021/06/06 00:23:50;;;;;;;54.28;33.28;;;16.50;90.70;;;;;;5177974;27;20117;-90
2021/06/06 00:26:17;;;;;;;53.30;33.13;;;16.50;90.60;;;;;;5176819;27;20046;-90
2021/06/06 00:28:43;;;;;;;40.40;28.25;;;16.50;90.40;;;;;;5177711;27;20409;-90
2021/06/06 00:31:10;;;;;;;54.08;33.30;;;16.50;90.10;;;;;;5173878;27;20038;-90
2021/06/06 00:33:36;;;;;;;45.97;29.48;;;16.50;90.30;;;;;;5157337;27;20051;-90
2021/06/06 00:36:05;;;;;;;46.80;30.27;;;16.50;90.50;;;;;;5153517;27;20045;-89
2021/06/06 00:38:30;;;;;;;41.67;28.40;;;16.50;90.50;;;;;;5156772;27;20065;-90
2021/06/06 00:40:58;;;;;;;47.53;29.35;;;16.40;90.20;;;;;;5155580;27;20478;-90
2021/06/06 00:43:24;;;;;;;46.15;29.92;;;16.50;90.20;;;;;;5155815;27;20098;-90
2021/06/06 00:45:51;;;;;;;50.33;32.17;;;16.40;90.20;;;;;;5156146;27;20061;-90
2021/06/06 00:48:17;;;;;;;42.70;28.63;;;16.50;90.30;;;;;;5155812;27;20043;-89
2021/06/06 00:50:48;;;;;;;39.65;27.88;;;16.50;90.50;;;;;;5169223;27;20103;-90
2021/06/06 00:53:24;;;;;;;41.20;26.77;;;16.40;90.20;;;;;;5159340;27;20146;-89
2021/06/06 00:55:51;;;;;;;42.72;28.15;;;16.40;90.00;;;;;;5155479;27;20081;-89
2021/06/06 00:58:17;;;;;;;39.75;28.00;;;16.40;90.20;;;;;;5155806;27;20451;-90
2021/06/06 01:00:52;;;;;;;40.47;28.17;;;16.40;90.20;;;;;;5155680;27;20050;-88
2021/06/06 01:03:23;;;;;;;41.50;27.50;;;16.40;90.10;;;;;;5155893;27;20050;-89
2021/06/06 01:06:00;;;;;;;38.05;25.88;;;16.40;90.30;;;;;;5156315;27;20046;-90
2021/06/06 01:08:28;;;;;;;41.60;27.17;;;16.40;90.10;;;;;;5155268;27;20117;-89
2021/06/06 01:11:06;;;;;;;35.95;24.92;;;16.40;90.30;;;;;;5155376;27;20057;-91
2021/06/06 01:13:55;;;;;;;36.28;25.33;;;16.40;90.20;;;;;;5173421;27;20042;-91
2021/06/06 01:16:27;;;;;;;37.42;25.65;;;16.40;90.10;;;;;;5175720;27;20091;-90
2021/06/06 01:18:55;;;;;;;36.70;26.77;;;16.40;90.30;;;;;;5174799;27;20089;-90
2021/06/06 01:21:49;;;;;;;38.03;25.02;;;16.40;90.30;;;;;;5176471;27;20137;-90
2021/06/06 01:24:31;;;;;;;37.60;25.40;;;16.40;89.70;;;;;;5164212;27;20050;-89
2021/06/06 01:27:03;;;;;;;33.75;24.67;;;16.40;90.10;;;;;;5176118;27;20042;-90
2021/06/06 01:29:47;;;;;;;34.77;24.83;;;16.40;90.10;;;;;;5175555;27;20075;-90
2021/06/06 01:32:21;;;;;;;33.22;24.23;;;16.40;90.30;;;;;;5173937;27;20102;-90
2021/06/06 01:34:57;;;;;;;35.10;24.15;;;16.40;90.30;;;;;;5176411;27;20129;-90
2021/06/06 01:37:24;;;;;;;33.53;24.83;;;16.30;90.20;;;;;;5173847;27;20043;-90
2021/06/06 01:40:02;;;;;;;31.35;22.73;;;16.40;90.00;;;;;;5174083;27;20073;-89
2021/06/06 01:42:32;;;;;;;33.25;24.00;;;16.40;89.10;;;;;;5172285;27;20443;-90
2021/06/06 01:45:03;;;;;;;32.72;23.30;;;16.30;89.50;;;;;;5154572;27;20066;-90
2021/06/06 01:47:31;;;;;;;32.92;24.48;;;16.30;89.80;;;;;;5137306;27;20054;-90
2021/06/06 01:50:09;;;;;;;31.27;22.55;;;16.30;89.90;;;;;;5157862;27;20066;-89
2021/06/06 01:52:37;;;;;;;31.55;23.33;;;16.30;89.90;;;;;;5175693;27;20057;-89
2021/06/06 01:55:09;;;;;;;31.27;22.88;;;16.30;90.00;;;;;;5182819;27;20049;-89
2021/06/06 01:57:36;;;;;;;34.05;23.40;;;16.30;89.50;;;;;;5182427;27;20046;-90
2021/06/06 02:00:06;;;;;;;34.85;24.35;;;16.30;89.90;;;;;;5182483;27;20042;-89
2021/06/06 02:02:32;;;;;;;32.63;23.80;;;16.30;90.00;;;;;;5171252;27;20051;-88
2021/06/06 02:04:57;;;;;;;32.20;23.90;;;16.30;90.10;;;;;;5160155;27;20153;-88
2021/06/06 02:07:28;;;;;;;28.00;22.27;;;16.30;90.10;;;;;;5162611;27;20042;-90
2021/06/06 02:10:05;;;;;;;29.33;21.85;;;16.30;90.10;;;;;;5159855;27;20074;-89
2021/06/06 02:12:32;;;;;;;31.48;23.55;;;16.20;90.00;;;;;;5154296;27;20062;-89
2021/06/06 02:15:00;;;;;;;27.33;20.88;;;16.20;90.20;;;;;;5154317;27;20130;-89
2021/06/06 02:17:30;;;;;;;30.90;22.30;;;16.20;90.20;;;;;;5154678;27;20051;-88
2021/06/06 02:20:03;;;;;;;32.33;23.33;;;16.20;90.10;;;;;;5153733;27;20047;-90
2021/06/06 02:22:30;;;;;;;30.15;23.73;;;16.20;90.20;;;;;;5154414;27;20046;-88
2021/06/06 02:24:57;;;;;;;29.73;23.67;;;16.20;90.30;;;;;;5154295;27;20051;-90
2021/06/06 02:27:36;;;;;;;27.23;21.90;;;16.20;90.30;;;;;;5153517;27;20543;-90
2021/06/06 02:30:16;;;;;;;26.60;22.17;;;16.20;90.20;;;;;;5154266;27;20053;-90
2021/06/06 02:33:04;;;;;;;33.33;23.50;;;16.10;90.10;;;;;;5153720;27;20042;-89
2021/06/06 02:35:37;;;;;;;28.10;22.20;;;16.10;90.10;;;;;;5154391;27;20085;-90
2021/06/06 02:38:21;;;;;;;;;;;16.10;90.00;;;;;;5154674;27;20047;-89
2021/06/06 02:40:49;;;;;;;;;;;16.00;89.50;;;;;;5154157;27;20370;-90
2021/06/06 02:43:20;;;;;;;29.55;21.88;;;16.00;89.40;;;;;;5153873;27;19919;-90
2021/06/06 02:45:47;;;;;;;30.67;23.15;;;16.00;90.10;;;;;;5151795;27;20463;-91
2021/06/06 02:48:21;;;;;;;28.42;22.17;;;16.00;90.10;;;;;;5152447;27;20047;-90
2021/06/06 02:50:48;;;;;;;28.63;22.95;;;16.00;90.20;;;;;;5154481;27;20042;-90
2021/06/06 02:53:44;;;;;;;26.10;20.73;;;16.00;90.40;;;;;;5157447;27;20054;-89
2021/06/06 02:56:14;;;;;;;30.02;22.27;;;16.00;90.20;;;;;;5156767;27;20046;-89
2021/06/06 02:59:04;;;;;;;24.77;20.05;;;16.00;90.30;;;;;;5158115;27;20054;-88
2021/06/06 03:01:39;;;;;;;24.83;20.58;;;16.00;89.70;;;;;;5157077;27;20103;-89
2021/06/06 03:04:10;;;;;;;24.83;19.70;;;15.90;90.10;;;;;;5157441;27;20074;-91
2021/06/06 03:06:57;;;;;;;29.85;23.00;;;16.00;89.60;;;;;;5157823;27;20050;-90
2021/06/06 03:09:23;;;;;;;26.65;21.40;;;16.00;89.90;;;;;;5157011;27;20054;-89
2021/06/06 03:11:52;;;;;;;26.15;20.77;;;16.00;90.10;;;;;;5157898;27;20049;-90
2021/06/06 03:14:21;;;;;;;25.90;20.50;;;16.00;90.10;;;;;;5157579;27;20047;-89
2021/06/06 03:17:08;;;;;;;29.73;23.13;;;16.00;89.90;;;;;;5157594;27;20068;-89
2021/06/06 03:19:41;;;;;;;29.10;22.83;;;16.00;90.30;;;;;;5157619;27;20129;-90
2021/06/06 03:22:11;;;;;;;28.83;24.17;;;16.00;90.20;;;;;;5156519;27;20486;-89
2021/06/06 03:24:47;;;;;;;31.10;24.48;;;15.90;90.20;;;;;;5157420;27;20051;-90
2021/06/06 03:27:14;;;;;;;27.73;22.55;;;15.90;90.30;;;;;;5157339;27;20149;-91
2021/06/06 03:30:06;;;;;;;26.50;21.42;;;15.90;90.20;;;;;;5171814;27;20466;-89
2021/06/06 03:32:36;;;;;;;28.30;23.65;;;15.90;90.00;;;;;;5178272;27;20050;-89
2021/06/06 03:35:06;;;;;;;25.92;21.33;;;15.90;90.20;;;;;;5177909;27;20053;-89
2021/06/06 03:37:31;;;;;;;27.80;21.00;;;15.90;90.40;;;;;;5177303;27;20050;-88
2021/06/06 03:39:57;;;;;;;28.70;22.48;;;15.90;90.30;;;;;;5177838;27;20090;-89
2021/06/06 03:42:24;;;;;;;25.55;20.95;;;15.90;90.20;;;;;;5178063;27;20054;-90
2021/06/06 03:44:50;;;;;;;27.95;21.80;;;15.90;90.20;;;;;;5170269;27;20042;-88
2021/06/06 03:47:16;;;;;;;28.52;21.05;;;15.90;90.10;;;;;;5167963;27;20083;-88
2021/06/06 03:49:42;;;;;;;31.98;23.58;;;15.90;90.10;;;;;;5165853;27;20443;-89
2021/06/06 03:52:08;;;;;;;30.95;23.77;;;15.90;90.10;;;;;;5167594;27;20046;-89
2021/06/06 03:54:34;;;;;;;27.02;21.13;;;15.80;90.20;;;;;;5167704;27;20151;-89
2021/06/06 03:57:00;;;;;;;32.60;24.90;;;15.80;90.10;;;;;;5163838;27;20401;-89
2021/06/06 03:59:26;;;;;;;31.88;23.92;;;15.90;90.30;;;;;;5165375;27;20038;-88
2021/06/06 04:01:52;;;;;;;36.55;25.73;;;15.80;90.30;;;;;;5169921;27;20446;-87
2021/06/06 04:04:18;;;;;;;30.40;23.15;;;15.80;90.40;;;;;;5164495;27;20039;-87
2021/06/06 04:06:45;;;;;;;35.88;25.15;;;15.80;90.50;;;;;;5169237;27;20086;-88
2021/06/06 04:09:11;;;;;;;33.03;24.67;;;15.80;90.60;;;;;;5177126;27;20062;-89
2021/06/06 04:11:37;;;;;;;28.95;22.30;;;15.80;90.50;;;;;;5176729;27;20042;-89
2021/06/06 04:14:03;;;;;;;34.65;24.88;;;15.80;90.70;;;;;;5164816;27;20047;-89
2021/06/06 04:16:30;;;;;;;31.13;23.35;;;15.80;90.50;;;;;;5156352;27;20043;-89
2021/06/06 04:18:56;;;;;;;42.50;27.10;;;15.80;90.50;;;;;;5155216;27;20054;-89
2021/06/06 04:21:25;;;;;;;30.70;23.15;;;15.80;90.60;;;;;;5156463;27;20038;-88
2021/06/06 04:23:51;;;;;;;32.92;24.45;;;15.70;90.70;;;;;;5156280;27;20058;-88
2021/06/06 04:26:18;;;;;;;32.38;23.63;;;15.70;90.50;;;;;;5155283;27;20382;-90
2021/06/06 04:28:44;;;;;;;32.58;23.55;;;15.70;90.60;;;;;;5163975;27;20052;-88
2021/06/06 04:31:11;;;;;;;29.15;21.48;;;15.70;90.60;;;;;;5176436;27;20039;-87
2021/06/06 04:33:37;;;;;;;32.88;22.65;;;15.70;90.50;;;;;;5175822;27;20134;-89
2021/06/06 04:36:04;;;;;;;27.67;22.20;;;15.70;90.50;;;;;;5156983;27;20046;-88
2021/06/06 04:38:31;;;;;;;31.38;23.73;;;15.70;90.60;;;;;;5156136;27;20074;-91
2021/06/06 04:41:00;;;;;;;29.65;22.63;;;15.70;90.60;;;;;;5154780;27;20122;-88
2021/06/06 04:43:26;;;;;;;28.58;20.92;;;15.70;90.60;;;;;;5155987;27;20046;-89
2021/06/06 04:45:52;;;;;;;33.25;23.08;;;15.70;90.60;;;;;;5136240;27;20111;-88
2021/06/06 04:48:30;;;;;;;26.60;21.15;;;15.70;90.70;;;;;;5161606;27;20121;-89
2021/06/06 04:50:59;;;;;;;27.10;21.33;;;15.70;90.40;;;;;;5176604;27;20046;-88
2021/06/06 04:53:25;;;;;;;26.00;21.30;;;15.70;90.40;;;;;;5175506;27;20051;-90
2021/06/06 04:55:52;;;;;;;30.73;22.52;;;15.70;90.50;;;;;;5176608;27;20544;-88
2021/06/06 04:58:20;;;;;;;34.38;24.42;;;15.70;90.50;;;;;;5174502;27;20073;-90
2021/06/06 05:00:47;;;;;;;28.52;21.98;;;15.70;90.70;;;;;;5172696;27;20050;-89
2021/06/06 05:03:15;;;;;;;29.20;22.33;;;15.80;90.60;;;;;;5175186;27;20042;-88
2021/06/06 05:05:41;;;;;;;32.03;22.73;;;15.70;90.70;;;;;;5176280;27;20048;-87
2021/06/06 05:08:09;;;;;;;26.75;21.05;;;15.80;90.70;;;;;;5168515;27;20043;-88
2021/06/06 05:10:39;;;;;;;31.33;22.05;;;15.70;90.80;;;;;;5155333;27;20110;-90
2021/06/06 05:13:05;;;;;;;33.88;24.15;;;15.70;90.80;;;;;;5154076;27;20054;-88
2021/06/06 05:15:31;;;;;;;36.45;24.58;;;15.70;91.00;;;;;;5154880;27;20046;-88
2021/06/06 05:17:57;;;;;;;37.85;24.88;;;15.70;91.00;;;;;;5155045;27;20075;-88
2021/06/06 05:20:30;;;;;;;35.65;23.42;;;15.70;91.10;;;;;;5155294;27;20050;-89
2021/06/06 05:22:56;;;;;;;32.45;23.27;;;15.70;91.00;;;;;;5154172;27;20184;-88
2021/06/06 05:25:22;;;;;;;31.67;23.42;;;15.70;91.10;;;;;;5155134;27;20038;-88
2021/06/06 05:27:49;;;;;;;31.65;23.48;;;15.70;91.10;;;;;;5160834;27;20039;-88
2021/06/06 05:30:21;;;;;;;33.10;23.17;;;15.70;91.10;;;;;;5175108;27;20042;-91
2021/06/06 05:32:51;;;;;;;39.38;26.80;;;15.70;91.00;;;;;;5176062;27;20054;-88
2021/06/06 05:35:18;;;;;;;42.90;27.23;;;15.70;91.10;;;;;;5175569;27;20094;-89
2021/06/06 05:37:43;;;;;;;35.55;24.10;;;15.70;91.20;;;;;;5175715;27;20140;-90
2021/06/06 05:40:10;;;;;;;40.67;25.75;;;15.70;91.20;;;;;;5175420;27;20512;-89
2021/06/06 05:42:35;;;;;;;46.53;27.33;;;15.70;91.20;;;;;;5174980;27;20050;-89
2021/06/06 05:45:02;;;;;;;39.72;25.63;;;15.60;91.20;;;;;;5175601;27;20057;-89
2021/06/06 05:47:27;;;;;;;34.63;23.63;;;15.70;91.30;;;;;;5169865;27;20481;-88
2021/06/06 05:49:53;;;;;;;31.33;22.33;;;15.70;91.20;;;;;;5153809;27;20118;-89
2021/06/06 05:52:19;;;;;;;35.17;23.25;;;15.70;91.20;;;;;;5154382;27;20059;-89
2021/06/06 05:54:45;;;;;;;43.63;26.30;;;15.70;91.20;;;;;;5154172;27;20046;-89
2021/06/06 05:57:10;;;;;;;48.17;27.33;;;15.60;91.30;;;;;;5153543;27;20042;-90
2021/06/06 05:59:36;;;;;;;46.53;25.60;;;15.70;91.40;;;;;;5154694;27;20125;-88
2021/06/06 06:02:02;;;;;;;37.58;24.08;;;15.70;91.40;;;;;;5153941;27;20039;-88
2021/06/06 06:04:28;;;;;;;37.38;23.55;;;15.70;91.40;;;;;;5153257;27;20047;-90
2021/06/06 06:06:53;;;;;;;39.72;23.48;;;15.60;91.40;;;;;;5155821;27;20065;-89
2021/06/06 06:09:19;;;;;;;44.13;24.75;;;15.60;91.40;;;;;;5175191;27;20050;-89
2021/06/06 06:11:45;;;;;;;39.90;24.15;;;15.60;91.40;;;;;;5174153;27;20042;-89
2021/06/06 06:14:11;;;;;;;39.45;24.52;;;15.60;91.50;;;;;;5174969;27;20129;-87
2021/06/06 06:16:39;;;;;;;43.45;24.60;;;15.60;91.50;;;;;;5175182;27;20482;-87
2021/06/06 06:19:09;;;;;;;38.67;24.30;;;15.60;91.60;;;;;;5174123;27;20042;-88
2021/06/06 06:21:36;;;;;;;43.55;24.85;;;15.60;91.60;;;;;;5175392;27;20042;-90
2021/06/06 06:24:03;;;;;;;40.08;25.27;;;15.60;91.60;;;;;;5174851;27;20532;-88
2021/06/06 06:26:29;;;;;;;38.17;25.38;;;15.60;91.60;;;;;;5177539;27;20489;-89
2021/06/06 06:29:15;;;;;;;39.78;25.70;;;15.60;91.60;;;;;;5143124;27;20050;-87
2021/06/06 06:31:41;;;;;;;40.90;25.45;;;15.60;91.70;;;;;;5157749;27;20095;-89
2021/06/06 06:34:06;;;;;;;41.05;25.15;;;15.60;91.70;;;;;;5157921;27;20537;-88
2021/06/06 06:36:33;;;;;;;37.78;23.38;;;15.50;91.80;;;;;;5158412;27;20122;-87
2021/06/06 06:38:59;;;;;;;37.50;23.42;;;15.50;91.80;;;;;;5157621;27;20130;-89
2021/06/06 06:41:27;;;;;;;34.10;23.33;;;15.50;91.90;;;;;;5158596;27;20074;-89
2021/06/06 06:43:53;;;;;;;36.53;22.35;;;15.50;92.00;;;;;;5157899;27;20069;-87
2021/06/06 06:46:19;;;;;;;32.15;19.98;;;15.50;91.90;;;;;;5159067;27;20043;-87
2021/06/06 06:48:46;;;;;;;32.80;21.40;;;15.50;91.90;;;;;;5178927;27;20050;-88
2021/06/06 06:51:12;;;;;;;29.30;20.00;;;15.50;91.90;;;;;;5160263;27;20378;-88
2021/06/06 06:53:40;;;;;;;32.63;19.92;;;15.50;91.90;;;;;;5176342;27;20058;-87
2021/06/06 06:56:05;;;;;;;31.17;20.50;;;15.50;91.90;;;;;;5169186;27;20034;-87
2021/06/06 06:58:33;;;;;;;31.17;20.13;;;15.60;92.00;;;;;;5171131;27;20077;-88
2021/06/06 07:00:59;;;;;;;27.92;18.40;;;15.60;92.00;;;;;;5164175;27;20761;-88
2021/06/06 07:03:29;;;;;;;29.92;18.88;;;15.50;91.90;;;;;;5169825;27;20042;-88
2021/06/06 07:05:56;;;;;;;31.02;19.27;;;15.60;92.00;;;;;;5163088;27;20043;-88
2021/06/06 07:08:26;;;;;;;27.10;18.40;;;15.60;91.80;;;;;;5157286;27;20050;-89
2021/06/06 07:10:52;;;;;;;26.45;17.35;;;15.60;91.70;;;;;;5157658;27;20046;-88
2021/06/06 07:13:19;;;;;;;25.73;15.02;;;15.70;91.70;;;;;;5157761;27;20047;-89
2021/06/06 07:15:45;;;;;;;23.73;14.60;;;15.70;91.70;;;;;;5156924;27;20057;-91
2021/06/06 07:18:18;;;;;;;24.15;14.32;;;15.70;91.70;;;;;;5157457;27;20509;-91
2021/06/06 07:20:44;;;;;;;24.50;15.27;;;15.70;91.70;;;;;;5156861;27;20434;-83
2021/06/06 07:23:12;;;;;;;26.75;15.40;;;15.70;91.70;;;;;;5156937;27;20167;-84
2021/06/06 07:25:40;;;;;;;26.35;14.88;;;15.70;91.80;;;;;;5162305;27;20039;-87
2021/06/06 07:28:07;;;;;;;24.95;15.35;;;15.70;91.80;;;;;;5160488;27;20047;-87
2021/06/06 07:30:37;;;;;;;27.23;16.05;;;15.70;91.80;;;;;;5156425;27;20043;-88
2021/06/06 07:33:04;;;;;;;23.77;15.75;;;15.70;91.80;;;;;;5157154;27;20066;-88
2021/06/06 07:35:31;;;;;;;23.65;16.15;;;15.70;91.70;;;;;;5156674;27;20058;-88
2021/06/06 07:38:24;;;;;;;26.77;16.08;;;15.70;91.70;;;;;;5143739;27;20149;-93
2021/06/06 07:40:51;;;;;;;22.98;16.00;;;15.70;91.80;;;;;;5157246;27;20046;-92
2021/06/06 07:43:18;;;;;;;22.80;15.50;;;15.70;91.80;;;;;;5161860;27;20438;-87
2021/06/06 07:45:44;;;;;;;24.80;15.63;;;15.70;91.70;;;;;;5157362;27;20063;-92
2021/06/06 07:48:10;;;;;;;21.60;15.13;;;15.70;91.70;;;;;;5160336;27;20390;-87
2021/06/06 07:50:43;;;;;;;25.30;16.38;;;15.70;91.60;;;;;;5163527;27;20054;-89
2021/06/06 07:53:10;;;;;;;23.88;15.90;;;15.70;91.60;;;;;;5159047;27;20059;-88
2021/06/06 07:55:53;;;;;;;25.75;16.70;;;15.70;91.60;;;;;;5156318;27;20046;-86
2021/06/06 07:58:29;;;;;;;23.13;15.45;;;15.80;91.60;;;;;;5156780;27;20103;-87
2021/06/06 08:00:55;;;;;;;23.10;15.00;;;15.70;91.50;;;;;;5159521;27;20043;-89
2021/06/06 08:03:21;;;;;;;23.63;15.18;;;15.80;91.50;;;;;;5166541;27;20046;-88
2021/06/06 08:05:48;;;;;;;23.58;15.93;;;15.80;91.40;;;;;;5176786;27;20076;-86
2021/06/06 08:08:15;;;;;;;21.00;14.38;;;15.80;91.40;;;;;;5174778;27;20039;-86
2021/06/06 08:10:45;;;;;;;20.52;14.55;;;15.80;91.40;;;;;;5171206;27;20065;-93
2021/06/06 08:13:11;;;;;;;20.98;14.77;;;15.90;91.40;;;;;;5177313;27;20091;-91
2021/06/06 08:15:37;;;;;;;25.92;15.90;;;15.90;91.30;;;;;;5177431;27;20411;-88
2021/06/06 08:18:07;;;;;;;23.95;15.73;;;15.90;91.40;;;;;;5175579;27;20417;-88
2021/06/06 08:20:37;;;;;;;22.23;15.48;;;15.90;91.30;;;;;;5177014;27;20046;-90
2021/06/06 08:23:04;;;;;;;23.50;15.63;;;15.90;91.30;;;;;;5178306;27;20053;-91
2021/06/06 08:25:29;;;;;;;23.98;16.00;;;15.90;91.40;;;;;;5177140;27;20045;-94
2021/06/06 08:27:55;;;;;;;24.63;15.88;;;15.90;91.50;;;;;;5163743;27;20051;-92
2021/06/06 08:30:27;;;;;;;24.92;15.65;;;16.00;91.60;;;;;;5176619;27;20053;-86
2021/06/06 08:32:53;;;;;;;26.42;17.92;;;16.00;91.90;;;;;;5176207;27;20489;-87
2021/06/06 08:35:19;;;;;;;26.20;17.20;;;16.00;91.60;;;;;;5174817;27;20045;-87
2021/06/06 08:37:46;;;;;;;29.20;17.63;;;16.00;91.60;;;;;;5176555;27;20474;-88
2021/06/06 08:40:17;;;;;;;30.55;18.55;;;16.00;91.50;;;;;;5156566;27;20129;-87
2021/06/06 08:42:46;;;;;;;28.17;18.13;;;16.00;91.60;;;;;;5176617;27;20042;-86
2021/06/06 08:45:26;;;;;;;28.73;19.00;;;16.00;91.50;;;;;;5170056;27;20073;-87
2021/06/06 08:47:53;;;;;;;30.88;18.77;;;16.00;91.40;;;;;;5165889;27;20589;-86
2021/06/06 08:50:24;;;;;;;32.38;19.67;;;15.90;91.50;;;;;;5146741;27;20045;-88
2021/06/06 08:52:55;;;;;;;32.58;20.75;;;16.00;91.50;;;;;;5165050;27;20046;-88
2021/06/06 08:55:36;;;;;;;28.92;19.58;;;15.90;91.50;;;;;;5176253;27;20046;-83
2021/06/06 08:58:23;;;;;;;31.92;20.40;;;15.90;91.50;;;;;;5161643;27;20047;-88
2021/06/06 09:01:06;;;;;;;30.55;19.40;;;15.80;91.60;;;;;;5155003;27;20082;-88
2021/06/06 09:03:31;;;;;;;33.60;20.63;;;15.80;91.60;;;;;;5155590;27;20191;-88
2021/06/06 09:06:01;;;;;;;34.10;20.25;;;15.80;91.60;;;;;;5155482;27;20069;-88
2021/06/06 09:08:31;;;;;;;31.48;21.15;;;15.80;91.60;;;;;;5155589;27;20047;-89
2021/06/06 09:10:59;;;;;;;37.45;22.00;;;15.80;91.70;;;;;;5168467;27;20403;-89
2021/06/06 09:13:30;;;;;;;36.55;22.25;;;15.80;91.70;;;;;;5174996;27;20046;-85
2021/06/06 09:16:19;;;;;;;42.33;25.23;;;15.90;91.70;;;;;;5175795;27;20042;-85
2021/06/06 09:18:48;;;;;;;41.78;25.33;;;15.80;91.80;;;;;;5174958;27;20130;-84
2021/06/06 09:21:16;;;;;;;43.35;25.90;;;15.80;91.80;;;;;;5174674;27;20049;-87
2021/06/06 09:23:43;;;;;;;42.33;26.10;;;15.80;91.90;;;;;;5176044;27;20042;-84
2021/06/06 09:26:18;;;;;;;44.92;26.45;;;15.80;92.00;;;;;;5174975;27;20398;-84
2021/06/06 09:28:48;;;;;;;42.47;25.90;;;15.80;91.90;;;;;;5154263;27;20058;-84
2021/06/06 09:31:17;;;;;;;41.78;26.65;;;15.80;91.90;;;;;;5157361;27;20042;-86
2021/06/06 09:33:58;;;;;;;42.28;25.90;;;15.80;92.00;;;;;;5175033;27;20485;-86
2021/06/06 09:36:38;;;;;;;43.63;27.02;;;15.70;92.00;;;;;;5174557;27;20042;-83
2021/06/06 09:39:19;;;;;;;43.08;25.85;;;15.80;91.90;;;;;;5175318;27;20074;-87
2021/06/06 09:41:48;;;;;;;44.72;26.52;;;15.70;92.00;;;;;;5174847;27;20050;-84
2021/06/06 09:44:13;;;;;;;44.50;26.63;;;15.70;92.10;;;;;;5175009;27;20043;-86
2021/06/06 09:47:05;;;;;;;44.00;25.88;;;15.70;92.10;;;;;;5170396;27;20073;-84
2021/06/06 09:49:45;;;;;;;45.75;27.30;;;15.80;92.00;;;;;;5153747;27;20099;-84
2021/06/06 09:52:20;;;;;;;41.40;25.40;;;15.80;92.10;;;;;;5154220;27;20062;-83
2021/06/06 09:54:52;;;;;;;44.33;26.58;;;15.80;92.10;;;;;;5154505;27;20070;-84
2021/06/06 09:57:24;;;;;;;39.45;25.05;;;15.80;92.10;;;;;;5153629;27;20501;-84
2021/06/06 09:59:51;;;;;;;;;;;15.80;92.50;;;;;;5159417;27;20042;-83
2021/06/06 10:02:30;;;;;;;39.60;24.23;;;15.80;92.20;;;;;;5163268;27;20430;-84
2021/06/06 10:05:08;;;;;;;33.88;21.13;;;15.70;92.10;;;;;;5167857;27;20482;-84
2021/06/06 10:07:40;;;;;;;36.47;21.92;;;15.80;92.20;;;;;;5174823;27;20110;-89
2021/06/06 10:10:18;;;;;;;35.23;20.77;;;15.80;92.30;;;;;;5174133;27;20485;-88
2021/06/06 10:12:48;;;;;;;27.08;18.70;;;15.80;92.10;;;;;;5175022;27;20042;-87
2021/06/06 10:15:19;;;;;;;29.80;19.58;;;15.80;92.10;;;;;;5174975;27;20046;-87
2021/06/06 10:17:50;;;;;;;30.90;18.55;;;15.80;92.10;;;;;;5159062;27;20406;-89
2021/06/06 10:20:19;;;;;;;27.25;18.67;;;15.80;92.20;;;;;;5154656;27;20405;-88
2021/06/06 10:23:04;;;;;;;26.02;16.83;;;15.80;92.30;;;;;;5154625;27;20134;-89
2021/06/06 10:25:59;;;;;;;25.65;17.17;;;15.80;92.30;;;;;;5156035;27;20078;-92
2021/06/06 10:28:32;;;;;;;26.35;16.23;;;15.80;92.30;;;;;;5156082;27;20569;-92
2021/06/06 10:31:20;;;;;;;26.80;16.70;;;15.80;92.30;;;;;;5154906;27;20089;-88
2021/06/06 10:33:53;;;;;;;23.20;16.70;;;15.80;92.30;;;;;;5155801;27;20111;-93
2021/06/06 10:36:21;;;;;;;30.90;17.45;;;15.80;92.40;;;;;;5157964;27;20049;-90
2021/06/06 10:38:47;;;;;;;26.75;16.15;;;15.80;92.40;;;;;;5156783;27;20042;-89
2021/06/06 10:41:16;;;;;;;23.60;16.20;;;15.80;92.40;;;;;;5155584;27;20046;-91
2021/06/06 10:43:51;;;;;;;22.33;14.15;;;15.90;92.30;;;;;;5155334;27;20047;-94
2021/06/06 10:46:42;;;;;;;22.85;13.52;;;15.80;92.30;;;;;;5155496;27;20038;-87
2021/06/06 10:49:23;;;;;;;21.00;13.95;;;15.90;92.40;;;;;;5154662;27;20137;-92
2021/06/06 10:51:57;;;;;;;20.13;13.77;;;15.90;92.50;;;;;;5155039;27;20058;-92
2021/06/06 10:54:33;;;;;;;21.27;13.93;;;15.90;92.40;;;;;;5155168;27;20141;-88
2021/06/06 10:57:07;;;;;;;19.67;12.68;;;15.90;92.40;;;;;;5154245;27;20121;-88
2021/06/06 10:59:37;;;;;;;20.15;13.00;;;15.90;92.50;;;;;;5153480;27;20050;-89
2021/06/06 11:02:08;;;;;;;19.83;12.15;;;15.90;92.60;;;;;;5153991;27;20046;-85
2021/06/06 11:04:48;;;;;;;19.13;12.45;;;15.90;92.60;;;;;;5154321;27;20053;-87
2021/06/06 11:07:17;;;;;;;21.20;13.35;;;15.90;92.50;;;;;;5172076;27;20053;-86
2021/06/06 11:09:47;;;;;;;19.17;11.75;;;15.90;92.50;;;;;;5174960;27;20074;-86
2021/06/06 11:12:30;;;;;;;24.52;13.98;;;15.90;92.50;;;;;;5176395;27;20050;-85
2021/06/06 11:14:56;;;;;;;21.00;12.52;;;16.00;92.50;;;;;;5174915;27;20042;-84
2021/06/06 11:17:36;;;;;;;25.20;14.15;;;16.00;92.50;;;;;;5157702;27;20107;-85
2021/06/06 11:20:24;;;;;;;23.13;14.30;;;16.00;92.40;;;;;;5156592;27;20046;-84
2021/06/06 11:22:50;;;;;;;21.77;14.15;;;16.00;92.40;;;;;;5157731;27;20127;-85
2021/06/06 11:25:36;;;;;;;26.98;15.57;;;16.00;92.40;;;;;;5161495;27;20439;-85
2021/06/06 11:28:05;;;;;;;24.45;15.70;;;16.00;92.40;;;;;;5177018;27;20050;-86
2021/06/06 11:30:35;;;;;;;23.50;15.70;;;16.00;92.40;;;;;;5178124;27;20091;-85
2021/06/06 11:33:11;;;;;;;28.85;16.83;;;16.00;92.40;;;;;;5177905;27;20058;-84
2021/06/06 11:35:36;;;;;;;25.65;15.30;;;16.00;92.50;;;;;;5173152;27;20043;-86
2021/06/06 11:38:23;;;;;;;21.77;15.35;;;16.00;92.40;;;;;;5164020;27;20496;-86
2021/06/06 11:40:51;;;;;;;22.98;15.77;;;16.00;92.50;;;;;;5174935;27;20042;-87
2021/06/06 11:43:41;;;;;;;22.95;14.75;;;16.00;92.70;;;;;;5159490;27;20106;-86
2021/06/06 11:46:30;;;;;;;21.17;14.20;;;15.90;92.60;;;;;;5156597;27;20126;-87
2021/06/06 11:49:18;;;;;;;23.90;15.43;;;15.90;92.60;;;;;;5156178;27;20494;-85
2021/06/06 11:51:47;;;;;;;22.50;14.15;;;16.00;92.70;;;;;;5175583;27;20057;-85
2021/06/06 11:54:31;;;;;;;19.77;13.93;;;16.00;92.70;;;;;;5177425;27;20545;-84
2021/06/06 11:57:08;;;;;;;21.15;13.88;;;16.00;92.60;;;;;;5175520;27;20378;-85
2021/06/06 11:59:49;;;;;;;24.25;14.02;;;16.00;92.50;;;;;;5156890;27;20459;-86
2021/06/06 12:02:32;;;;;;;21.52;14.40;;;16.00;92.50;;;;;;5155729;27;20050;-85
2021/06/06 12:05:30;;;;;;;21.58;13.52;;;15.90;92.60;;;;;;5156568;27;20053;-88
2021/06/06 12:08:13;;;;;;;20.92;12.55;;;16.00;92.70;;;;;;5157793;27;20042;-88
2021/06/06 12:11:01;;;;;;;14.90;12.20;;;16.00;92.60;;;;;;5156066;27;20046;-86
2021/06/06 12:13:31;;;;;;;23.08;13.15;;;16.00;92.60;;;;;;5155500;27;20490;-84
2021/06/06 12:16:13;;;;;;;25.20;13.63;;;16.00;92.60;;;;;;5159688;27;20039;-84
2021/06/06 12:18:42;;;;;;;19.73;13.70;;;16.10;92.50;;;;;;5156640;27;20129;-87
2021/06/06 12:21:12;;;;;;;19.33;13.52;;;16.10;92.50;;;;;;5158647;27;20054;-86
2021/06/06 12:23:42;;;;;;;17.55;12.23;;;16.10;92.60;;;;;;5176513;27;20401;-89
2021/06/06 12:26:23;;;;;;;17.30;10.70;;;16.20;92.50;;;;;;5177531;27;20212;-89
2021/06/06 12:28:51;;;;;;;15.40;10.13;;;16.10;92.40;;;;;;5177423;27;20053;-87
2021/06/06 12:31:26;;;;;;;14.93;10.02;;;16.10;92.40;;;;;;5155873;27;20096;-89
2021/06/06 12:33:53;;;;;;;13.63;8.65;;;16.20;92.40;;;;;;5155935;27;20126;-87
2021/06/06 12:36:25;;;;;;;12.02;8.48;;;16.20;92.30;;;;;;5156857;27;20039;-86
2021/06/06 12:38:56;;;;;;;11.63;8.02;;;16.20;92.40;;;;;;5155192;27;20047;-88
2021/06/06 12:41:22;;;;;;;12.20;7.13;;;16.20;92.30;;;;;;5173505;27;20038;-86
2021/06/06 12:43:54;;;;;;;12.25;7.70;;;16.20;92.40;;;;;;5176749;27;20442;-86
2021/06/06 12:46:21;;;;;;;13.63;7.78;;;16.20;92.30;;;;;;5156677;27;20046;-89
2021/06/06 12:49:07;;;;;;;13.95;7.70;;;16.20;92.30;;;;;;5176751;27;20129;-87